Temp: 15.8°C   Baro: 1015.3mb
  Wind: 0.9mph   Dir: WNW (298°)
  Rain: 0.0mm (0.0mm/hr)
  Solar: 0W/m2  Hum: 94%
 
Bath Spa Weather Station Historical Data
Daily Summary for September 15, 2021 Units:  Both    English   Metric
Daily Weekly Monthly Yearly Custom
  High: Low: Average:
Temperature: 70.6 °F /  21.4 °C 54.5 °F /  12.5 °C 61.2 °F /  16.2 °C
Dew Point: 61.2 °F /  16.2 °C 53.8 °F /  12.1 °C 57.2 °F /  14 °C
Humidity: 95% 67.6% 85%
Wind Speed: 6.8mph /  10.9km/h - 1.7mph /  2.7km/h
Wind Gust: 13mph /  20.9km/h - -
Wind- - West
Pressure: 30.06 in /  1017.8 hPa 29.93 in /  1013.4 hPa -
Precipitation: 0.00 in /  0 mm    
Historical Graphs
 
 
Tabular Data for September 15, 2021
Time Temperature Dew Point Pressure Wind Wind Speed Wind Gust Humidity Rainfall Rate (Hourly) solar
00:04 58.5 °F /  14.7 °C 57.4 °F /  14.1 °C 29.93in /  1013.4hPa Calm     93% 0.00in /  0mm 0 W/m2
00:09 58.5 °F /  14.7 °C 57.4 °F /  14.1 °C 29.93in /  1013.4hPa Calm     93% 0.00in /  0mm 0 W/m2
00:14 58.5 °F /  14.7 °C 57.4 °F /  14.1 °C 29.93in /  1013.4hPa North 0.2mph /  0.3km/h 2mph /  3.2km/h 93% 0.00in /  0mm 0 W/m2
00:19 58.5 °F /  14.7 °C 57.4 °F /  14.1 °C 29.93in /  1013.4hPa Calm   1mph /  1.6km/h 93% 0.00in /  0mm 0 W/m2
00:24 58.5 °F /  14.7 °C 57.4 °F /  14.1 °C 29.93in /  1013.4hPa Calm     93% 0.00in /  0mm 0 W/m2
00:29 58.5 °F /  14.7 °C 57.4 °F /  14.1 °C 29.93in /  1013.4hPa North 0.2mph /  0.3km/h 3mph /  4.8km/h 93% 0.00in /  0mm 0 W/m2
00:34 58.5 °F /  14.7 °C 57.4 °F /  14.1 °C 29.93in /  1013.4hPa Calm   2mph /  3.2km/h 93% 0.00in /  0mm 0 W/m2
00:39 58.5 °F /  14.7 °C 57.4 °F /  14.1 °C 29.93in /  1013.4hPa North 0.2mph /  0.3km/h 1mph /  1.6km/h 93% 0.00in /  0mm 0 W/m2
00:44 58.5 °F /  14.7 °C 57.4 °F /  14.1 °C 29.93in /  1013.4hPa North 1mph /  1.6km/h 2mph /  3.2km/h 93% 0.00in /  0mm 0 W/m2
00:49 58.5 °F /  14.7 °C 57.4 °F /  14.1 °C 29.93in /  1013.4hPa North 2mph /  3.2km/h 4mph /  6.4km/h 93% 0.00in /  0mm 0 W/m2
00:54 58.5 °F /  14.7 °C 57.4 °F /  14.1 °C 29.93in /  1013.4hPa North 2.2mph /  3.5km/h 5mph /  8km/h 93% 0.00in /  0mm 0 W/m2
00:59 58.5 °F /  14.7 °C 57.4 °F /  14.1 °C 29.93in /  1013.4hPa North 2.5mph /  4km/h 5mph /  8km/h 93% 0.00in /  0mm 0 W/m2
01:04 58.5 °F /  14.7 °C 57.4 °F /  14.1 °C 29.93in /  1013.4hPa North 3.2mph /  5.1km/h 5mph /  8km/h 93% 0.00in /  0mm 0 W/m2
01:09 58.5 °F /  14.7 °C 57.4 °F /  14.1 °C 29.93in /  1013.4hPa North 2.8mph /  4.5km/h 6mph /  9.7km/h 93% 0.00in /  0mm 0 W/m2
01:14 58.5 °F /  14.7 °C 57.4 °F /  14.1 °C 29.94in /  1013.8hPa North 2.7mph /  4.3km/h 4mph /  6.4km/h 93% 0.00in /  0mm 0 W/m2
01:19 58.5 °F /  14.7 °C 57.4 °F /  14.1 °C 29.94in /  1013.8hPa North 2.4mph /  3.9km/h 4mph /  6.4km/h 93% 0.00in /  0mm 0 W/m2
01:24 58.5 °F /  14.7 °C 57.4 °F /  14.1 °C 29.94in /  1013.8hPa North 1.1mph /  1.8km/h 4mph /  6.4km/h 93% 0.00in /  0mm 0 W/m2
01:29 58.5 °F /  14.7 °C 57.4 °F /  14.1 °C 29.93in /  1013.4hPa North 1.5mph /  2.4km/h 5mph /  8km/h 93% 0.00in /  0mm 0 W/m2
01:34 58.3 °F /  14.6 °C 57.2 °F /  14 °C 29.93in /  1013.4hPa North 2.1mph /  3.4km/h 6mph /  9.7km/h 93% 0.00in /  0mm 0 W/m2
01:39 58.3 °F /  14.6 °C 57.2 °F /  14 °C 29.93in /  1013.4hPa North 2mph /  3.2km/h 4mph /  6.4km/h 93% 0.00in /  0mm 0 W/m2
01:44 58.3 °F /  14.6 °C 57.2 °F /  14 °C 29.93in /  1013.4hPa North 1.9mph /  3.1km/h 4mph /  6.4km/h 93% 0.00in /  0mm 0 W/m2
01:49 58.3 °F /  14.6 °C 57.2 °F /  14 °C 29.93in /  1013.4hPa North 0.4mph /  0.6km/h 4mph /  6.4km/h 93% 0.00in /  0mm 0 W/m2
01:54 58.3 °F /  14.6 °C 57.2 °F /  14 °C 29.93in /  1013.4hPa North 1.2mph /  1.9km/h 4mph /  6.4km/h 93% 0.00in /  0mm 0 W/m2
01:59 58.1 °F /  14.5 °C 57 °F /  13.9 °C 29.93in /  1013.4hPa North 0.5mph /  0.8km/h 4mph /  6.4km/h 93% 0.00in /  0mm 0 W/m2
02:04 58.1 °F /  14.5 °C 57 °F /  13.9 °C 29.93in /  1013.4hPa North 0.6mph /  1km/h 2mph /  3.2km/h 93% 0.00in /  0mm 0 W/m2
02:09 58.1 °F /  14.5 °C 57 °F /  13.9 °C 29.93in /  1013.4hPa North 2mph /  3.2km/h 4mph /  6.4km/h 93% 0.00in /  0mm 0 W/m2
02:14 58 °F /  14.4 °C 56.9 °F /  13.8 °C 29.93in /  1013.4hPa North 1.2mph /  1.9km/h 4mph /  6.4km/h 93% 0.00in /  0mm 0 W/m2
02:19 57.9 °F /  14.4 °C 56.8 °F /  13.8 °C 29.93in /  1013.4hPa North 0.8mph /  1.3km/h 3mph /  4.8km/h 93% 0.00in /  0mm 0 W/m2
02:24 57.9 °F /  14.4 °C 56.7 °F /  13.7 °C 29.93in /  1013.4hPa North 1.8mph /  2.9km/h 5mph /  8km/h 92.8% 0.00in /  0mm 0 W/m2
02:29 57.9 °F /  14.4 °C 56.5 °F /  13.6 °C 29.93in /  1013.4hPa North 1mph /  1.6km/h 5mph /  8km/h 92% 0.00in /  0mm 0 W/m2
02:34 57.9 °F /  14.4 °C 56.5 °F /  13.6 °C 29.93in /  1013.4hPa North 1mph /  1.6km/h 7mph /  11.3km/h 92% 0.00in /  0mm 0 W/m2
02:39 57.9 °F /  14.4 °C 56.5 °F /  13.6 °C 29.93in /  1013.4hPa North 0.6mph /  1km/h 3mph /  4.8km/h 92% 0.00in /  0mm 0 W/m2
02:44 57.9 °F /  14.4 °C 56.5 °F /  13.6 °C 29.93in /  1013.4hPa North 1.9mph /  3.1km/h 6mph /  9.7km/h 92% 0.00in /  0mm 0 W/m2
02:49 57.9 °F /  14.4 °C 56.5 °F /  13.6 °C 29.93in /  1013.4hPa North 0.4mph /  0.6km/h 4mph /  6.4km/h 92% 0.00in /  0mm 0 W/m2
02:54 57.9 °F /  14.4 °C 56.5 °F /  13.6 °C 29.93in /  1013.4hPa North 1.2mph /  1.9km/h 3mph /  4.8km/h 92% 0.00in /  0mm 0 W/m2
02:59 57.9 °F /  14.4 °C 56.5 °F /  13.6 °C 29.93in /  1013.4hPa North 0.2mph /  0.3km/h 2mph /  3.2km/h 92% 0.00in /  0mm 0 W/m2
03:04 57.9 °F /  14.4 °C 56.5 °F /  13.6 °C 29.93in /  1013.4hPa Calm   2mph /  3.2km/h 92% 0.00in /  0mm 0 W/m2
03:09 57.9 °F /  14.4 °C 56.5 °F /  13.6 °C 29.93in /  1013.4hPa North 0.2mph /  0.3km/h 2mph /  3.2km/h 92% 0.00in /  0mm 0 W/m2
03:14 57.9 °F /  14.4 °C 56.5 °F /  13.6 °C 29.93in /  1013.4hPa Calm   1mph /  1.6km/h 92% 0.00in /  0mm 0 W/m2
03:19 58 °F /  14.4 °C 56.6 °F /  13.7 °C 29.93in /  1013.4hPa Calm     92% 0.00in /  0mm 0 W/m2
03:24 58.1 °F /  14.5 °C 56.7 °F /  13.7 °C 29.93in /  1013.4hPa Calm     92% 0.00in /  0mm 0 W/m2
03:29 58.1 °F /  14.5 °C 56.5 °F /  13.6 °C 29.93in /  1013.4hPa North 0.2mph /  0.3km/h 2mph /  3.2km/h 91.6% 0.00in /  0mm 0 W/m2
03:34 58.1 °F /  14.5 °C 56.3 °F /  13.5 °C 29.93in /  1013.4hPa Calm     91% 0.00in /  0mm 0 W/m2
03:39 58.2 °F /  14.6 °C 56.4 °F /  13.6 °C 29.93in /  1013.4hPa Calm     91% 0.00in /  0mm 0 W/m2
03:44 58.2 °F /  14.6 °C 56.4 °F /  13.6 °C 29.93in /  1013.4hPa North 0.6mph /  1km/h 2mph /  3.2km/h 91% 0.00in /  0mm 0 W/m2
03:49 58 °F /  14.4 °C 56.2 °F /  13.4 °C 29.93in /  1013.4hPa Calm   2mph /  3.2km/h 91% 0.00in /  0mm 0 W/m2
03:54 57.9 °F /  14.4 °C 56.1 °F /  13.4 °C 29.93in /  1013.4hPa Calm   1mph /  1.6km/h 91% 0.00in /  0mm 0 W/m2
03:59 57.9 °F /  14.4 °C 56.1 °F /  13.4 °C 29.93in /  1013.4hPa Calm     91% 0.00in /  0mm 0 W/m2
04:04 57.9 °F /  14.4 °C 56.1 °F /  13.4 °C 29.93in /  1013.4hPa Calm     91% 0.00in /  0mm 0 W/m2
04:09 57.9 °F /  14.4 °C 56.1 °F /  13.4 °C 29.93in /  1013.4hPa North 2.4mph /  3.9km/h 3mph /  4.8km/h 91% 0.00in /  0mm 0 W/m2
04:14 57.9 °F /  14.4 °C 56.2 °F /  13.4 °C 29.93in /  1013.4hPa North 1.2mph /  1.9km/h 4mph /  6.4km/h 91.2% 0.00in /  0mm 0 W/m2
04:19 57.9 °F /  14.4 °C 56.5 °F /  13.6 °C 29.93in /  1013.4hPa North 0.2mph /  0.3km/h 2mph /  3.2km/h 92% 0.00in /  0mm 0 W/m2
04:24 57.9 °F /  14.4 °C 56.5 °F /  13.6 °C 29.93in /  1013.4hPa North 1.2mph /  1.9km/h 5mph /  8km/h 92% 0.00in /  0mm 0 W/m2
04:29 57.9 °F /  14.4 °C 56.5 °F /  13.6 °C 29.93in /  1013.4hPa North 0.4mph /  0.6km/h 3mph /  4.8km/h 92% 0.00in /  0mm 0 W/m2
04:34 57.9 °F /  14.4 °C 56.5 °F /  13.6 °C 29.93in /  1013.4hPa Calm     92% 0.00in /  0mm 0 W/m2
04:39 57.7 °F /  14.3 °C 56.3 °F /  13.5 °C 29.93in /  1013.4hPa North 0.4mph /  0.6km/h 2mph /  3.2km/h 92% 0.00in /  0mm 0 W/m2
04:44 57.7 °F /  14.3 °C 56.3 °F /  13.5 °C 29.93in /  1013.4hPa Calm   2mph /  3.2km/h 92% 0.00in /  0mm 0 W/m2
04:49 57.7 °F /  14.3 °C 56.3 °F /  13.5 °C 29.93in /  1013.4hPa Calm     92% 0.00in /  0mm 0 W/m2
04:54 57.6 °F /  14.2 °C 56.1 °F /  13.4 °C 29.93in /  1013.4hPa Calm     92% 0.00in /  0mm 0 W/m2
04:59 57.6 °F /  14.2 °C 56.1 °F /  13.4 °C 29.93in /  1013.4hPa Calm     92% 0.00in /  0mm 0 W/m2
05:04 57.6 °F /  14.2 °C 56.1 °F /  13.4 °C 29.93in /  1013.4hPa Calm     92% 0.00in /  0mm 0 W/m2
05:09 57.4 °F /  14.1 °C 55.9 °F /  13.3 °C 29.93in /  1013.4hPa Calm     92% 0.00in /  0mm 0 W/m2
05:14 57.1 °F /  13.9 °C 55.7 °F /  13.2 °C 29.93in /  1013.4hPa North 1.8mph /  2.9km/h 3mph /  4.8km/h 92% 0.00in /  0mm 0 W/m2
05:19 56.9 °F /  13.8 °C 55.5 °F /  13.1 °C 29.93in /  1013.4hPa North 2.5mph /  4km/h 4mph /  6.4km/h 92% 0.00in /  0mm 0 W/m2
05:24 56.8 °F /  13.8 °C 55.4 °F /  13 °C 29.93in /  1013.4hPa North 2mph /  3.2km/h 4mph /  6.4km/h 92% 0.00in /  0mm 0 W/m2
05:29 56.7 °F /  13.7 °C 55.2 °F /  12.9 °C 29.94in /  1013.8hPa North 1.6mph /  2.6km/h 3mph /  4.8km/h 92% 0.00in /  0mm 0 W/m2
05:34 56.6 °F /  13.7 °C 55.3 °F /  12.9 °C 29.94in /  1013.8hPa North 1.5mph /  2.4km/h 3mph /  4.8km/h 92.8% 0.00in /  0mm 0 W/m2
05:39 56.4 °F /  13.6 °C 54.9 °F /  12.7 °C 29.94in /  1013.8hPa North 1.8mph /  2.9km/h 3mph /  4.8km/h 92% 0.00in /  0mm 0 W/m2
05:44 56 °F /  13.3 °C 55 °F /  12.8 °C 29.94in /  1013.8hPa North 1.8mph /  2.9km/h 3mph /  4.8km/h 93% 0.00in /  0mm 0 W/m2
05:49 55.8 °F /  13.2 °C 54.8 °F /  12.7 °C 29.94in /  1013.8hPa North 1.3mph /  2.1km/h 3mph /  4.8km/h 93% 0.00in /  0mm 0 W/m2
05:54 55.8 °F /  13.2 °C 54.7 °F /  12.6 °C 29.94in /  1013.8hPa North 1.2mph /  1.9km/h 3mph /  4.8km/h 93% 0.00in /  0mm 0 W/m2
05:59 55.8 °F /  13.2 °C 54.7 °F /  12.6 °C 29.95in /  1014.1hPa North 0.7mph /  1.1km/h 3mph /  4.8km/h 93% 0.00in /  0mm 0 W/m2
06:04 55.6 °F /  13.1 °C 54.5 °F /  12.5 °C 29.95in /  1014.1hPa North 1.2mph /  1.9km/h 3mph /  4.8km/h 93% 0.00in /  0mm 0 W/m2
06:09 55.6 °F /  13.1 °C 54.5 °F /  12.5 °C 29.95in /  1014.1hPa North 1.6mph /  2.6km/h 3mph /  4.8km/h 93% 0.00in /  0mm 0 W/m2
06:14 55.5 °F /  13.1 °C 54.4 °F /  12.4 °C 29.95in /  1014.1hPa North 0.4mph /  0.6km/h 3mph /  4.8km/h 93% 0.00in /  0mm 0 W/m2
06:19 55.2 °F /  12.9 °C 54.1 °F /  12.3 °C 29.95in /  1014.1hPa Calm   2mph /  3.2km/h 93% 0.00in /  0mm 0 W/m2
06:24 55.2 °F /  12.9 °C 54.1 °F /  12.3 °C 29.95in /  1014.1hPa Calm     93% 0.00in /  0mm 0 W/m2
06:29 55.2 °F /  12.9 °C 54.1 °F /  12.3 °C 29.95in /  1014.1hPa Calm     93% 0.00in /  0mm 0 W/m2
06:34 55.2 °F /  12.9 °C 54.1 °F /  12.3 °C 29.95in /  1014.1hPa Calm     93% 0.00in /  0mm 0 W/m2
06:39 55.2 °F /  12.9 °C 54.1 °F /  12.3 °C 29.96in /  1014.4hPa Calm     93% 0.00in /  0mm 0 W/m2
06:44 55.1 °F /  12.8 °C 54 °F /  12.2 °C 29.96in /  1014.4hPa Calm     93% 0.00in /  0mm 0 W/m2
06:49 55 °F /  12.8 °C 54 °F /  12.2 °C 29.96in /  1014.4hPa Calm   4mph /  6.4km/h 93% 0.00in /  0mm 5 W/m2
06:54 55 °F /  12.8 °C 54.1 °F /  12.3 °C 29.96in /  1014.4hPa North 0.6mph /  1km/h 2mph /  3.2km/h 93.6% 0.00in /  0mm 7 W/m2
06:59 54.9 °F /  12.7 °C 54.1 °F /  12.3 °C 29.96in /  1014.4hPa North 0.2mph /  0.3km/h 2mph /  3.2km/h 94% 0.00in /  0mm 11 W/m2
07:04 54.7 °F /  12.6 °C 54 °F /  12.2 °C 29.97in /  1014.8hPa North 0.4mph /  0.6km/h 2mph /  3.2km/h 94% 0.00in /  0mm 12 W/m2
07:09 54.7 °F /  12.6 °C 54 °F /  12.2 °C 29.97in /  1014.8hPa Calm     94% 0.00in /  0mm 16 W/m2
07:14 54.7 °F /  12.6 °C 54 °F /  12.2 °C 29.97in /  1014.8hPa Calm     94% 0.00in /  0mm 21 W/m2
07:19 54.7 °F /  12.6 °C 54 °F /  12.2 °C 29.97in /  1014.8hPa Calm     94% 0.00in /  0mm 25 W/m2
07:24 54.5 °F /  12.5 °C 53.8 °F /  12.1 °C 29.97in /  1014.8hPa Calm     94% 0.00in /  0mm 30 W/m2
07:29 54.5 °F /  12.5 °C 53.8 °F /  12.1 °C 29.97in /  1014.8hPa Calm     94% 0.00in /  0mm 39 W/m2
07:34 54.5 °F /  12.5 °C 53.8 °F /  12.1 °C 29.98in /  1015.1hPa Calm     94% 0.00in /  0mm 46 W/m2
07:39 54.5 °F /  12.5 °C 53.8 °F /  12.1 °C 29.98in /  1015.1hPa Calm     94% 0.00in /  0mm 49 W/m2
07:44 54.7 °F /  12.6 °C 54 °F /  12.2 °C 29.98in /  1015.1hPa Calm   1mph /  1.6km/h 94% 0.00in /  0mm 49 W/m2
07:49 54.8 °F /  12.7 °C 54 °F /  12.2 °C 29.98in /  1015.1hPa North 0.4mph /  0.6km/h 1mph /  1.6km/h 94% 0.00in /  0mm 51 W/m2
07:54 54.9 °F /  12.7 °C 54.2 °F /  12.3 °C 29.98in /  1015.1hPa Calm     94% 0.00in /  0mm 53 W/m2
07:59 55.2 °F /  12.9 °C 54.5 °F /  12.5 °C 29.98in /  1015.1hPa Calm     94% 0.00in /  0mm 54 W/m2
08:04 55.5 °F /  13.1 °C 54.8 °F /  12.7 °C 29.98in /  1015.1hPa Calm     94% 0.00in /  0mm 83 W/m2
08:09 55.6 °F /  13.1 °C 54.9 °F /  12.7 °C 29.98in /  1015.1hPa Calm     94% 0.00in /  0mm 79 W/m2
08:14 55.8 °F /  13.2 °C 55 °F /  12.8 °C 29.98in /  1015.1hPa Calm     94% 0.00in /  0mm 91 W/m2
08:19 55.9 °F /  13.3 °C 55.2 °F /  12.9 °C 29.98in /  1015.1hPa Calm     94% 0.00in /  0mm 102 W/m2
08:24 55.9 °F /  13.3 °C 55.2 °F /  12.9 °C 29.98in /  1015.1hPa North 0.4mph /  0.6km/h 2mph /  3.2km/h 94% 0.00in /  0mm 113 W/m2
08:29 55.9 °F /  13.3 °C 55.2 °F /  12.9 °C 29.98in /  1015.1hPa North 0.8mph /  1.3km/h 3mph /  4.8km/h 94% 0.00in /  0mm 113 W/m2
08:34 56 °F /  13.3 °C 55.2 °F /  12.9 °C 29.98in /  1015.1hPa North 0.8mph /  1.3km/h 2mph /  3.2km/h 94% 0.00in /  0mm 121 W/m2
08:39 56.4 °F /  13.6 °C 55.7 °F /  13.2 °C 29.99in /  1015.5hPa North 0.6mph /  1km/h 3mph /  4.8km/h 94.6% 0.00in /  0mm 139 W/m2
08:44 56.7 °F /  13.7 °C 56.1 °F /  13.4 °C 29.99in /  1015.5hPa North 0.4mph /  0.6km/h 3mph /  4.8km/h 95% 0.00in /  0mm 151 W/m2
08:49 56.9 °F /  13.8 °C 56.4 °F /  13.6 °C 29.98in /  1015.1hPa North 1.2mph /  1.9km/h 3mph /  4.8km/h 95% 0.00in /  0mm 167 W/m2
08:54 57.3 °F /  14.1 °C 56.8 °F /  13.8 °C 29.99in /  1015.5hPa North 0.4mph /  0.6km/h 3mph /  4.8km/h 95% 0.00in /  0mm 190 W/m2
08:59 57.8 °F /  14.3 °C 57.3 °F /  14.1 °C 29.98in /  1015.1hPa Calm   3mph /  4.8km/h 95% 0.00in /  0mm 204 W/m2
09:04 58.3 °F /  14.6 °C 57.7 °F /  14.3 °C 29.99in /  1015.5hPa North 1.8mph /  2.9km/h 5mph /  8km/h 94.8% 0.00in /  0mm 251 W/m2
09:09 58.5 °F /  14.7 °C 57.6 °F /  14.2 °C 29.99in /  1015.5hPa North 1.2mph /  1.9km/h 5mph /  8km/h 94% 0.00in /  0mm 251 W/m2
09:14 58.5 °F /  14.7 °C 57.6 °F /  14.2 °C 29.99in /  1015.5hPa North 1.5mph /  2.4km/h 5mph /  8km/h 94% 0.00in /  0mm 111 W/m2
09:19 58.3 °F /  14.6 °C 57.4 °F /  14.1 °C 29.99in /  1015.5hPa North 3.2mph /  5.1km/h 5mph /  8km/h 93.8% 0.00in /  0mm 125 W/m2
09:23 58.3 °F /  14.6 °C 57.2 °F /  14 °C 29.99in /  1015.5hPa North 2.5mph /  4km/h 5mph /  8km/h 93% 0.00in /  0mm 181 W/m2
09:29 58.5 °F /  14.7 °C 57.4 °F /  14.1 °C 30.00in /  1015.8hPa Calm   4mph /  6.4km/h 93% 0.00in /  0mm 183 W/m2
09:34 58.7 °F /  14.8 °C 57.6 °F /  14.2 °C 30.00in /  1015.8hPa North 1.2mph /  1.9km/h 3mph /  4.8km/h 93% 0.00in /  0mm 185 W/m2
09:39 58.9 °F /  14.9 °C 57.7 °F /  14.3 °C 30.00in /  1015.8hPa North 0.6mph /  1km/h 5mph /  8km/h 92.6% 0.00in /  0mm 165 W/m2
09:44 58.8 °F /  14.9 °C 57.4 °F /  14.1 °C 30.00in /  1015.8hPa North 1.4mph /  2.3km/h 5mph /  8km/h 92% 0.00in /  0mm 213 W/m2
09:49 59.1 °F /  15.1 °C 57.4 °F /  14.1 °C 30.00in /  1015.8hPa Calm     91.2% 0.00in /  0mm 364 W/m2
09:54 59.5 °F /  15.3 °C 57.7 °F /  14.3 °C 30.00in /  1015.8hPa North 3.3mph /  5.3km/h 5mph /  8km/h 91% 0.00in /  0mm 237 W/m2
09:59 59.4 °F /  15.2 °C 57.4 °F /  14.1 °C 30.00in /  1015.8hPa North 2.6mph /  4.2km/h 5mph /  8km/h 90% 0.00in /  0mm 297 W/m2
10:04 59.6 °F /  15.3 °C 57.6 °F /  14.2 °C 30.00in /  1015.8hPa North 2.2mph /  3.5km/h 5mph /  8km/h 89.8% 0.00in /  0mm 399 W/m2
10:09 60 °F /  15.6 °C 57.5 °F /  14.2 °C 30.00in /  1015.8hPa North 2.3mph /  3.7km/h 5mph /  8km/h 88.6% 0.00in /  0mm 345 W/m2
10:14 60.1 °F /  15.6 °C 57.3 °F /  14.1 °C 30.00in /  1015.8hPa North 3.6mph /  5.8km/h 6mph /  9.7km/h 87.8% 0.00in /  0mm 172 W/m2
10:19 60.1 °F /  15.6 °C 57 °F /  13.9 °C 30.00in /  1015.8hPa North 2.5mph /  4km/h 5mph /  8km/h 87% 0.00in /  0mm 193 W/m2
10:24 60.2 °F /  15.7 °C 57.1 °F /  13.9 °C 30.01in /  1016.1hPa North 1.7mph /  2.7km/h 5mph /  8km/h 87% 0.00in /  0mm 471 W/m2
10:29 60.6 °F /  15.9 °C 57.6 °F /  14.2 °C 30.01in /  1016.1hPa North 2.5mph /  4km/h 5mph /  8km/h 87% 0.00in /  0mm 443 W/m2
10:34 60.7 °F /  15.9 °C 57.4 °F /  14.1 °C 30.01in /  1016.1hPa North 4mph /  6.4km/h 6mph /  9.7km/h 86% 0.00in /  0mm 130 W/m2
10:39 60.3 °F /  15.7 °C 57.1 °F /  13.9 °C 30.01in /  1016.1hPa North 1.6mph /  2.6km/h 7mph /  11.3km/h 86% 0.00in /  0mm 137 W/m2
10:44 60.4 °F /  15.8 °C 57.2 °F /  14 °C 30.01in /  1016.1hPa North 2.5mph /  4km/h 7mph /  11.3km/h 86% 0.00in /  0mm 480 W/m2
10:49 61.1 °F /  16.2 °C 57.5 °F /  14.2 °C 30.01in /  1016.1hPa North 1mph /  1.6km/h 7mph /  11.3km/h 85.2% 0.00in /  0mm 506 W/m2
10:54 61.8 °F /  16.6 °C 57.8 °F /  14.3 °C 30.01in /  1016.1hPa North 1.6mph /  2.6km/h 6mph /  9.7km/h 84% 0.00in /  0mm 334 W/m2
10:59 61.5 °F /  16.4 °C 57.2 °F /  14 °C 30.01in /  1016.1hPa North 4mph /  6.4km/h 8mph /  12.9km/h 83.2% 0.00in /  0mm 438 W/m2
11:04 61.3 °F /  16.3 °C 57 °F /  13.9 °C 30.01in /  1016.1hPa North 2.4mph /  3.9km/h 8mph /  12.9km/h 83% 0.00in /  0mm 508 W/m2
11:09 62.1 °F /  16.7 °C 57.8 °F /  14.3 °C 30.01in /  1016.1hPa North 3.3mph /  5.3km/h 8mph /  12.9km/h 83.2% 0.00in /  0mm 522 W/m2
11:14 62.5 °F /  16.9 °C 57.8 °F /  14.3 °C 30.01in /  1016.1hPa North 3.7mph /  6km/h 7mph /  11.3km/h 82% 0.00in /  0mm 538 W/m2
11:19 63.1 °F /  17.3 °C 57.8 °F /  14.3 °C 30.01in /  1016.1hPa North 3.1mph /  5km/h 7mph /  11.3km/h 80.4% 0.00in /  0mm 533 W/m2
11:24 63.1 °F /  17.3 °C 57.4 °F /  14.1 °C 30.01in /  1016.1hPa North 2.4mph /  3.9km/h 6mph /  9.7km/h 79.4% 0.00in /  0mm 582 W/m2
11:29 63.2 °F /  17.3 °C 57.7 °F /  14.3 °C 30.01in /  1016.1hPa North 2.5mph /  4km/h 7mph /  11.3km/h 79.6% 0.00in /  0mm 571 W/m2
11:34 63.5 °F /  17.5 °C 58.1 °F /  14.5 °C 30.00in /  1015.8hPa North 2.6mph /  4.2km/h 6mph /  9.7km/h 80% 0.00in /  0mm 566 W/m2
11:39 63 °F /  17.2 °C 57.6 °F /  14.2 °C 30.00in /  1015.8hPa NNW 4.1mph /  6.6km/h 9mph /  14.5km/h 80% 0.00in /  0mm 573 W/m2
11:44 62.9 °F /  17.2 °C 57.5 °F /  14.2 °C 30.00in /  1015.8hPa NNW 3.5mph /  5.6km/h 9mph /  14.5km/h 80.2% 0.00in /  0mm 638 W/m2
11:49 62.8 °F /  17.1 °C 57.6 °F /  14.2 °C 30.00in /  1015.8hPa NNW 4.8mph /  7.7km/h 9mph /  14.5km/h 80.8% 0.00in /  0mm 645 W/m2
11:54 62.4 °F /  16.9 °C 57 °F /  13.9 °C 30.00in /  1015.8hPa NNW 5.3mph /  8.5km/h 9mph /  14.5km/h 80% 0.00in /  0mm 645 W/m2
11:59 62.1 °F /  16.7 °C 56.9 °F /  13.8 °C 30.00in /  1015.8hPa NNW 4.6mph /  7.4km/h 8mph /  12.9km/h 80.8% 0.00in /  0mm 603 W/m2
12:04 62.5 °F /  16.9 °C 57.4 °F /  14.1 °C 29.99in /  1015.5hPa NW 5.4mph /  8.7km/h 9mph /  14.5km/h 80.8% 0.00in /  0mm 612 W/m2
12:09 63.2 °F /  17.3 °C 57.9 °F /  14.4 °C 30.00in /  1015.8hPa NNW 3.7mph /  6km/h 8mph /  12.9km/h 80.4% 0.00in /  0mm 629 W/m2
12:14 63.5 °F /  17.5 °C 57.9 °F /  14.4 °C 29.99in /  1015.5hPa NNW 5.2mph /  8.4km/h 10mph /  16.1km/h 79.4% 0.00in /  0mm 608 W/m2
12:19 63.2 °F /  17.3 °C 57.6 °F /  14.2 °C 29.99in /  1015.5hPa North 3.5mph /  5.6km/h 10mph /  16.1km/h 79.4% 0.00in /  0mm 621 W/m2
12:24 63.9 °F /  17.7 °C 58 °F /  14.4 °C 29.99in /  1015.5hPa North 4.4mph /  7.1km/h 7mph /  11.3km/h 78.8% 0.00in /  0mm 615 W/m2
12:29 63.3 °F /  17.4 °C 57.4 °F /  14.1 °C 29.99in /  1015.5hPa North 5.8mph /  9.3km/h 9mph /  14.5km/h 78.4% 0.00in /  0mm 621 W/m2
12:34 63.7 °F /  17.6 °C 58 °F /  14.4 °C 29.99in /  1015.5hPa North 4.8mph /  7.7km/h 8mph /  12.9km/h 79.2% 0.00in /  0mm 633 W/m2
12:39 63.7 °F /  17.6 °C 57.8 °F /  14.3 °C 29.99in /  1015.5hPa NNW 4.4mph /  7.1km/h 9mph /  14.5km/h 78.8% 0.00in /  0mm 628 W/m2
12:44 63.9 °F /  17.7 °C 57.8 °F /  14.3 °C 29.99in /  1015.5hPa NNW 6.6mph /  10.6km/h 10mph /  16.1km/h 78.2% 0.00in /  0mm 668 W/m2
12:49 63.8 °F /  17.7 °C 57.7 °F /  14.3 °C 29.99in /  1015.5hPa NW 3.2mph /  5.1km/h 10mph /  16.1km/h 78% 0.00in /  0mm 701 W/m2
12:54 64.5 °F /  18.1 °C 58.4 °F /  14.7 °C 29.99in /  1015.5hPa NNW 3.3mph /  5.3km/h 12mph /  19.3km/h 78.2% 0.00in /  0mm 671 W/m2
12:59 64.9 °F /  18.3 °C 58.5 °F /  14.7 °C 29.99in /  1015.5hPa NW 3.2mph /  5.1km/h 8mph /  12.9km/h 77.3% 0.00in /  0mm 671 W/m2
13:04 65 °F /  18.3 °C 58.2 °F /  14.6 °C 29.99in /  1015.5hPa NNW 6.8mph /  10.9km/h 12mph /  19.3km/h 76.2% 0.00in /  0mm 673 W/m2
13:09 64.6 °F /  18.1 °C 57.8 °F /  14.3 °C 29.99in /  1015.5hPa NW 6.7mph /  10.8km/h 12mph /  19.3km/h 76.4% 0.00in /  0mm 636 W/m2
13:14 64 °F /  17.8 °C 57.5 °F /  14.2 °C 29.99in /  1015.5hPa NW 5.3mph /  8.5km/h 11mph /  17.7km/h 76.6% 0.00in /  0mm 650 W/m2
13:19 64.6 °F /  18.1 °C 58.1 °F /  14.5 °C 29.99in /  1015.5hPa NNW 4.2mph /  6.8km/h 8mph /  12.9km/h 77% 0.00in /  0mm 664 W/m2
13:24 65.5 °F /  18.6 °C 58.4 °F /  14.7 °C 29.99in /  1015.5hPa NNW 6.5mph /  10.5km/h 10mph /  16.1km/h 75.4% 0.00in /  0mm 675 W/m2
13:29 65.6 °F /  18.7 °C 58.5 °F /  14.7 °C 29.99in /  1015.5hPa WNW 6.2mph /  10km/h 12mph /  19.3km/h 75.4% 0.00in /  0mm 721 W/m2
13:34 65.7 °F /  18.7 °C 57.8 °F /  14.3 °C 29.99in /  1015.5hPa NW 6.6mph /  10.6km/h 12mph /  19.3km/h 73.4% 0.00in /  0mm 729 W/m2
13:39 65.5 °F /  18.6 °C 57.9 °F /  14.4 °C 29.99in /  1015.5hPa WNW 5.7mph /  9.2km/h 11mph /  17.7km/h 74% 0.00in /  0mm 650 W/m2
13:44 66 °F /  18.9 °C 58.6 °F /  14.8 °C 29.99in /  1015.5hPa NW 3.6mph /  5.8km/h 8mph /  12.9km/h 74.6% 0.00in /  0mm 621 W/m2
13:49 66.5 °F /  19.2 °C 58.5 °F /  14.7 °C 29.99in /  1015.5hPa NW 4.3mph /  6.9km/h 9mph /  14.5km/h 73.4% 0.00in /  0mm 631 W/m2
13:54 66.7 °F /  19.3 °C 58.5 °F /  14.7 °C 29.99in /  1015.5hPa North 6.8mph /  10.9km/h 9mph /  14.5km/h 72.4% 0.00in /  0mm 633 W/m2
13:59 66.4 °F /  19.1 °C 58.3 °F /  14.6 °C 29.99in /  1015.5hPa NNW 4.8mph /  7.7km/h 9mph /  14.5km/h 73% 0.00in /  0mm 603 W/m2
14:04 66.9 °F /  19.4 °C 59 °F /  15 °C 29.99in /  1015.5hPa NNW 3mph /  4.8km/h 11mph /  17.7km/h 73.6% 0.00in /  0mm 626 W/m2
14:09 67 °F /  19.4 °C 58.6 °F /  14.8 °C 29.99in /  1015.5hPa NNW 3.5mph /  5.6km/h 8mph /  12.9km/h 72% 0.00in /  0mm 606 W/m2
14:14 66.6 °F /  19.2 °C 58.2 °F /  14.6 °C 29.99in /  1015.5hPa NNW 6.6mph /  10.6km/h 11mph /  17.7km/h 72% 0.00in /  0mm 608 W/m2
14:19 66.7 °F /  19.3 °C 58.2 °F /  14.6 °C 29.99in /  1015.5hPa NNW 5.2mph /  8.4km/h 13mph /  20.9km/h 71.8% 0.00in /  0mm 608 W/m2
14:24 66.6 °F /  19.2 °C 57.8 °F /  14.3 °C 29.99in /  1015.5hPa NNW 6.1mph /  9.8km/h 10mph /  16.1km/h 71.2% 0.00in /  0mm 606 W/m2
14:29 67.1 °F /  19.5 °C 58.6 °F /  14.8 °C 29.99in /  1015.5hPa NNW 4.6mph /  7.4km/h 11mph /  17.7km/h 71.8% 0.00in /  0mm 589 W/m2
14:34 67.4 °F /  19.7 °C 57.6 °F /  14.2 °C 29.98in /  1015.1hPa NNW 6.6mph /  10.6km/h 11mph /  17.7km/h 68.8% 0.00in /  0mm 584 W/m2
14:39 67.3 °F /  19.6 °C 58.1 °F /  14.5 °C 29.98in /  1015.1hPa NNW 6.6mph /  10.6km/h 11mph /  17.7km/h 70% 0.00in /  0mm 578 W/m2
14:44 67.5 °F /  19.7 °C 58 °F /  14.4 °C 29.98in /  1015.1hPa NW 4mph /  6.4km/h 8mph /  12.9km/h 69.6% 0.00in /  0mm 582 W/m2
14:49 68.4 °F /  20.2 °C 58.7 °F /  14.8 °C 29.98in /  1015.1hPa NNW 1.7mph /  2.7km/h 8mph /  12.9km/h 69% 0.00in /  0mm 584 W/m2
14:54 68.7 °F /  20.4 °C 58.9 °F /  14.9 °C 29.98in /  1015.1hPa NNW 3.7mph /  6km/h 7mph /  11.3km/h 68.6% 0.00in /  0mm 570 W/m2
14:59 68.7 °F /  20.4 °C 58.6 °F /  14.8 °C 29.98in /  1015.1hPa NNW 3.2mph /  5.1km/h 7mph /  11.3km/h 68.3% 0.00in /  0mm 570 W/m2
15:04 68.7 °F /  20.4 °C 58.6 °F /  14.8 °C 29.98in /  1015.1hPa NW 4.7mph /  7.6km/h 9mph /  14.5km/h 68% 0.00in /  0mm 564 W/m2
15:09 68.9 °F /  20.5 °C 58.9 °F /  14.9 °C 29.98in /  1015.1hPa NW 4.5mph /  7.2km/h 8mph /  12.9km/h 68.2% 0.00in /  0mm 568 W/m2
15:14 68.5 °F /  20.3 °C 58.5 °F /  14.7 °C 29.99in /  1015.5hPa NNW 6.7mph /  10.8km/h 9mph /  14.5km/h 68.2% 0.00in /  0mm 570 W/m2
15:19 68.3 °F /  20.2 °C 58.3 °F /  14.6 °C 29.99in /  1015.5hPa NNW 4mph /  6.4km/h 8mph /  12.9km/h 68.4% 0.00in /  0mm 577 W/m2
15:24 68.9 °F /  20.5 °C 59 °F /  15 °C 29.99in /  1015.5hPa North 6mph /  9.7km/h 10mph /  16.1km/h 68.4% 0.00in /  0mm 592 W/m2
15:29 69.3 °F /  20.7 °C 59.2 °F /  15.1 °C 29.98in /  1015.1hPa North 3.7mph /  6km/h 9mph /  14.5km/h 68% 0.00in /  0mm 584 W/m2
15:34 69.4 °F /  20.8 °C 59.4 °F /  15.2 °C 29.99in /  1015.5hPa NNE 3.7mph /  6km/h 10mph /  16.1km/h 68% 0.00in /  0mm 584 W/m2
15:39 69.4 °F /  20.8 °C 59.1 °F /  15.1 °C 29.99in /  1015.5hPa NNW 3mph /  4.8km/h 8mph /  12.9km/h 67.6% 0.00in /  0mm 589 W/m2
15:44 69.2 °F /  20.7 °C 59.3 °F /  15.2 °C 29.98in /  1015.1hPa NW 2.9mph /  4.7km/h 6mph /  9.7km/h 68.6% 0.00in /  0mm 599 W/m2
15:49 69.6 °F /  20.9 °C 59.4 °F /  15.2 °C 29.98in /  1015.1hPa NNW 3.9mph /  6.3km/h 8mph /  12.9km/h 68% 0.00in /  0mm 236 W/m2
15:54 69.3 °F /  20.7 °C 59.4 °F /  15.2 °C 29.98in /  1015.1hPa NNW 2.8mph /  4.5km/h 6mph /  9.7km/h 68.6% 0.00in /  0mm 218 W/m2
15:59 69.6 °F /  20.9 °C 59.5 °F /  15.3 °C 29.99in /  1015.5hPa NNW 1.7mph /  2.7km/h 4mph /  6.4km/h 68.2% 0.00in /  0mm 471 W/m2
16:04 69.4 °F /  20.8 °C 59.4 °F /  15.2 °C 29.99in /  1015.5hPa NNW 3.1mph /  5km/h 7mph /  11.3km/h 68% 0.00in /  0mm 471 W/m2
16:09 68.9 °F /  20.5 °C 59.1 °F /  15.1 °C 29.99in /  1015.5hPa NNW 2.9mph /  4.7km/h 7mph /  11.3km/h 68.8% 0.00in /  0mm 497 W/m2
16:14 69.1 °F /  20.6 °C 59.6 °F /  15.3 °C 29.99in /  1015.5hPa NNW 2.1mph /  3.4km/h 6mph /  9.7km/h 69.8% 0.00in /  0mm 239 W/m2
16:19 69.1 °F /  20.6 °C 59.5 °F /  15.3 °C 29.99in /  1015.5hPa NNW 2.5mph /  4km/h 6mph /  9.7km/h 69.3% 0.00in /  0mm 364 W/m2
16:24 68.8 °F /  20.4 °C 59.5 °F /  15.3 °C 29.99in /  1015.5hPa NNW 3.2mph /  5.1km/h 6mph /  9.7km/h 70% 0.00in /  0mm 457 W/m2
16:29 69.3 °F /  20.7 °C 59.9 °F /  15.5 °C 29.99in /  1015.5hPa NNW 2.5mph /  4km/h 5mph /  8km/h 70% 0.00in /  0mm 464 W/m2
16:34 69.7 °F /  20.9 °C 60.1 °F /  15.6 °C 29.99in /  1015.5hPa Calm   4mph /  6.4km/h 69.2% 0.00in /  0mm 439 W/m2
16:39 70 °F /  21.1 °C 60.3 °F /  15.7 °C 29.99in /  1015.5hPa NNW 1.4mph /  2.3km/h 5mph /  8km/h 69% 0.00in /  0mm 434 W/m2
16:44 70.2 °F /  21.2 °C 60.1 °F /  15.6 °C 29.99in /  1015.5hPa NW 3.6mph /  5.8km/h 11mph /  17.7km/h 68.4% 0.00in /  0mm 334 W/m2
16:49 69.3 °F /  20.7 °C 59.6 °F /  15.3 °C 29.99in /  1015.5hPa WNW 3.7mph /  6km/h 9mph /  14.5km/h 69.2% 0.00in /  0mm 156 W/m2
16:54 68.6 °F /  20.3 °C 59.3 °F /  15.2 °C 30.00in /  1015.8hPa WNW 2.4mph /  3.9km/h 7mph /  11.3km/h 70% 0.00in /  0mm 214 W/m2
16:59 68.4 °F /  20.2 °C 59.3 °F /  15.2 °C 30.00in /  1015.8hPa WNW 3.4mph /  5.5km/h 5mph /  8km/h 70.6% 0.00in /  0mm 214 W/m2
17:04 68.2 °F /  20.1 °C 59.5 °F /  15.3 °C 30.00in /  1015.8hPa WNW 2.5mph /  4km/h 5mph /  8km/h 71.4% 0.00in /  0mm 204 W/m2
17:09 68.2 °F /  20.1 °C 59.7 °F /  15.4 °C 30.00in /  1015.8hPa WNW 3.1mph /  5km/h 6mph /  9.7km/h 72% 0.00in /  0mm 294 W/m2
17:14 68.2 °F /  20.1 °C 59.9 °F /  15.5 °C 30.00in /  1015.8hPa WNW 1.6mph /  2.6km/h 5mph /  8km/h 72.4% 0.00in /  0mm 100 W/m2
17:19 68.1 °F /  20.1 °C 59.7 °F /  15.4 °C 30.00in /  1015.8hPa WNW 1.3mph /  2.1km/h 5mph /  8km/h 72.2% 0.00in /  0mm 121 W/m2
17:23 68.1 °F /  20.1 °C 59.9 °F /  15.5 °C 30.00in /  1015.8hPa WNW 0.2mph /  0.3km/h 2mph /  3.2km/h 72.8% 0.00in /  0mm 253 W/m2
17:29 68.5 °F /  20.3 °C 60.4 °F /  15.8 °C 30.00in /  1015.8hPa Calm   1mph /  1.6km/h 73% 0.00in /  0mm 267 W/m2
17:34 69.4 °F /  20.8 °C 60.7 °F /  15.9 °C 30.00in /  1015.8hPa Calm     71.8% 0.00in /  0mm 271 W/m2
17:39 70.3 °F /  21.3 °C 61.2 °F /  16.2 °C 30.00in /  1015.8hPa WNW 0.9mph /  1.4km/h 6mph /  9.7km/h 70.8% 0.00in /  0mm 267 W/m2
17:44 70.6 °F /  21.4 °C 61.2 °F /  16.2 °C 30.00in /  1015.8hPa WNW 1.2mph /  1.9km/h 5mph /  8km/h 70% 0.00in /  0mm 262 W/m2
17:49 70.3 °F /  21.3 °C 61.2 °F /  16.2 °C 30.00in /  1015.8hPa WNW 2.8mph /  4.5km/h 6mph /  9.7km/h 70.6% 0.00in /  0mm 246 W/m2
17:54 69.7 °F /  20.9 °C 60.8 °F /  16 °C 30.00in /  1015.8hPa WNW 4.9mph /  7.9km/h 8mph /  12.9km/h 71.4% 0.00in /  0mm 153 W/m2
17:59 68.6 °F /  20.3 °C 60.4 °F /  15.8 °C 30.01in /  1016.1hPa WNW 3.7mph /  6km/h 8mph /  12.9km/h 72.8% 0.00in /  0mm 130 W/m2
18:04 67.9 °F /  19.9 °C 60.2 °F /  15.7 °C 30.01in /  1016.1hPa WNW 5.1mph /  8.2km/h 8mph /  12.9km/h 74.2% 0.00in /  0mm 100 W/m2
18:08 67.5 °F /  19.7 °C 60.2 °F /  15.7 °C 30.01in /  1016.1hPa WNW 5mph /  8km/h 9mph /  14.5km/h 75% 0.00in /  0mm 90 W/m2
18:14 67.2 °F /  19.6 °C 60.1 °F /  15.6 °C 30.01in /  1016.1hPa WNW 3.6mph /  5.8km/h 7mph /  11.3km/h 75.8% 0.00in /  0mm 76 W/m2
18:19 66.8 °F /  19.3 °C 59.9 °F /  15.5 °C 30.01in /  1016.1hPa WNW 4.1mph /  6.6km/h 8mph /  12.9km/h 76.2% 0.00in /  0mm 72 W/m2
18:24 66.7 °F /  19.3 °C 60.3 °F /  15.7 °C 30.01in /  1016.1hPa WNW 3.1mph /  5km/h 6mph /  9.7km/h 77% 0.00in /  0mm 72 W/m2
18:29 66.7 °F /  19.3 °C 60.2 °F /  15.7 °C 30.01in /  1016.1hPa WNW 3.8mph /  6.1km/h 7mph /  11.3km/h 77% 0.00in /  0mm 62 W/m2
18:34 66.6 °F /  19.2 °C 60.1 °F /  15.6 °C 30.01in /  1016.1hPa WNW 2.5mph /  4km/h 6mph /  9.7km/h 77% 0.00in /  0mm 53 W/m2
18:39 66.6 °F /  19.2 °C 60.1 °F /  15.6 °C 30.01in /  1016.1hPa WNW 4.2mph /  6.8km/h 8mph /  12.9km/h 77% 0.00in /  0mm 44 W/m2
18:44 66.4 °F /  19.1 °C 59.9 °F /  15.5 °C 30.01in /  1016.1hPa WNW 3mph /  4.8km/h 8mph /  12.9km/h 77% 0.00in /  0mm 49 W/m2
18:49 66 °F /  18.9 °C 59.6 °F /  15.3 °C 30.01in /  1016.1hPa WNW 3.5mph /  5.6km/h 7mph /  11.3km/h 77.2% 0.00in /  0mm 44 W/m2
18:54 65.8 °F /  18.8 °C 59.5 °F /  15.3 °C 30.02in /  1016.5hPa WNW 2.3mph /  3.7km/h 5mph /  8km/h 77.6% 0.00in /  0mm 44 W/m2
18:59 65.7 °F /  18.7 °C 59.5 °F /  15.3 °C 30.02in /  1016.5hPa WNW 3.5mph /  5.6km/h 6mph /  9.7km/h 78% 0.00in /  0mm 33 W/m2
19:04 65.5 °F /  18.6 °C 59.4 °F /  15.2 °C 30.02in /  1016.5hPa WNW 2mph /  3.2km/h 5mph /  8km/h 78% 0.00in /  0mm 23 W/m2
19:09 65.1 °F /  18.4 °C 59 °F /  15 °C 30.02in /  1016.5hPa WNW 2.1mph /  3.4km/h 5mph /  8km/h 78% 0.00in /  0mm 11 W/m2
19:14 64.9 °F /  18.3 °C 58.7 °F /  14.8 °C 30.02in /  1016.5hPa WNW 2.5mph /  4km/h 6mph /  9.7km/h 78% 0.00in /  0mm 7 W/m2
19:19 64.7 °F /  18.2 °C 58.9 °F /  14.9 °C 30.02in /  1016.5hPa WNW 1.6mph /  2.6km/h 5mph /  8km/h 79% 0.00in /  0mm 5 W/m2
19:24 64.5 °F /  18.1 °C 58.7 °F /  14.8 °C 30.02in /  1016.5hPa WNW 0.5mph /  0.8km/h 3mph /  4.8km/h 79% 0.00in /  0mm 0 W/m2
19:29 64.2 °F /  17.9 °C 58.8 °F /  14.9 °C 30.02in /  1016.5hPa WNW 2.4mph /  3.9km/h 4mph /  6.4km/h 80% 0.00in /  0mm 0 W/m2
19:34 64 °F /  17.8 °C 58.6 °F /  14.8 °C 30.02in /  1016.5hPa WNW 1.6mph /  2.6km/h 4mph /  6.4km/h 80% 0.00in /  0mm 0 W/m2
19:39 63.9 °F /  17.7 °C 58.6 °F /  14.8 °C 30.02in /  1016.5hPa WNW 0.2mph /  0.3km/h 3mph /  4.8km/h 80.2% 0.00in /  0mm 0 W/m2
19:44 63.7 °F /  17.6 °C 58.6 °F /  14.8 °C 30.02in /  1016.5hPa WNW 0.4mph /  0.6km/h 3mph /  4.8km/h 81% 0.00in /  0mm 0 W/m2
19:49 63.5 °F /  17.5 °C 58.5 °F /  14.7 °C 30.03in /  1016.8hPa Calm     81% 0.00in /  0mm 0 W/m2
19:54 63.3 °F /  17.4 °C 58.3 °F /  14.6 °C 30.03in /  1016.8hPa Calm     81% 0.00in /  0mm 0 W/m2
19:59 63.1 °F /  17.3 °C 58.4 °F /  14.7 °C 30.03in /  1016.8hPa Calm     81.8% 0.00in /  0mm 0 W/m2
20:04 63 °F /  17.2 °C 58.4 °F /  14.7 °C 30.03in /  1016.8hPa Calm     82% 0.00in /  0mm 0 W/m2
20:09 62.9 °F /  17.2 °C 58.2 °F /  14.6 °C 30.03in /  1016.8hPa Calm     82% 0.00in /  0mm 0 W/m2
20:14 62.6 °F /  17 °C 58.1 °F /  14.5 °C 30.03in /  1016.8hPa Calm     82.6% 0.00in /  0mm 0 W/m2
20:19 62.4 °F /  16.9 °C 58.1 °F /  14.5 °C 30.03in /  1016.8hPa Calm     83% 0.00in /  0mm 0 W/m2
20:24 62.4 °F /  16.9 °C 58.1 °F /  14.5 °C 30.03in /  1016.8hPa Calm     83% 0.00in /  0mm 0 W/m2
20:29 62.2 °F /  16.8 °C 57.9 °F /  14.4 °C 30.03in /  1016.8hPa Calm     83% 0.00in /  0mm 0 W/m2
20:34 62.1 °F /  16.7 °C 57.8 °F /  14.3 °C 30.04in /  1017.2hPa Calm     83.2% 0.00in /  0mm 0 W/m2
20:39 61.9 °F /  16.6 °C 57.9 °F /  14.4 °C 30.04in /  1017.2hPa Calm     84% 0.00in /  0mm 0 W/m2
20:44 61.8 °F /  16.6 °C 57.8 °F /  14.3 °C 30.04in /  1017.2hPa Calm     84% 0.00in /  0mm 0 W/m2
20:49 61.7 °F /  16.5 °C 57.7 °F /  14.3 °C 30.04in /  1017.2hPa Calm     84% 0.00in /  0mm 0 W/m2
20:54 61.5 °F /  16.4 °C 57.6 °F /  14.2 °C 30.04in /  1017.2hPa Calm     84% 0.00in /  0mm 0 W/m2
20:59 61.5 °F /  16.4 °C 57.6 °F /  14.2 °C 30.04in /  1017.2hPa Calm     84% 0.00in /  0mm 0 W/m2
21:04 61.5 °F /  16.4 °C 57.9 °F /  14.4 °C 30.04in /  1017.2hPa Calm     85% 0.00in /  0mm 0 W/m2
21:09 61.5 °F /  16.4 °C 57.9 °F /  14.4 °C 30.04in /  1017.2hPa Calm     85% 0.00in /  0mm 0 W/m2
21:14 61.3 °F /  16.3 °C 57.7 °F /  14.3 °C 30.04in /  1017.2hPa Calm     85% 0.00in /  0mm 0 W/m2
21:19 61 °F /  16.1 °C 57.4 °F /  14.1 °C 30.04in /  1017.2hPa Calm     85% 0.00in /  0mm 0 W/m2
21:24 60.8 °F /  16 °C 57.2 °F /  14 °C 30.04in /  1017.2hPa Calm     85% 0.00in /  0mm 0 W/m2
21:29 60.5 °F /  15.8 °C 56.9 °F /  13.8 °C 30.04in /  1017.2hPa Calm     85% 0.00in /  0mm 0 W/m2
21:34 60.2 °F /  15.7 °C 56.6 °F /  13.7 °C 30.04in /  1017.2hPa Calm     85% 0.00in /  0mm 0 W/m2
21:39 59.6 °F /  15.3 °C 56.3 °F /  13.5 °C 30.04in /  1017.2hPa WNW 0.8mph /  1.3km/h 3mph /  4.8km/h 85.8% 0.00in /  0mm 0 W/m2
21:44 59.3 °F /  15.2 °C 56 °F /  13.3 °C 30.05in /  1017.5hPa WNW 0.8mph /  1.3km/h 3mph /  4.8km/h 86% 0.00in /  0mm 0 W/m2
21:48 58.8 °F /  14.9 °C 55.8 °F /  13.2 °C 30.05in /  1017.5hPa WNW 0.2mph /  0.3km/h 3mph /  4.8km/h 86.5% 0.00in /  0mm 0 W/m2
21:54 58.8 °F /  14.9 °C 55.8 °F /  13.2 °C 30.05in /  1017.5hPa Calm   2mph /  3.2km/h 87% 0.00in /  0mm 0 W/m2
21:59 58.7 °F /  14.8 °C 55.7 °F /  13.2 °C 30.05in /  1017.5hPa Calm     87% 0.00in /  0mm 0 W/m2
22:04 58.5 °F /  14.7 °C 55.4 °F /  13 °C 30.05in /  1017.5hPa Calm     87% 0.00in /  0mm 0 W/m2
22:09 58.5 °F /  14.7 °C 55.5 °F /  13.1 °C 30.05in /  1017.5hPa Calm     87.4% 0.00in /  0mm 0 W/m2
22:14 58.3 °F /  14.6 °C 55.5 °F /  13.1 °C 30.05in /  1017.5hPa Calm     87.6% 0.00in /  0mm 0 W/m2
22:19 58.3 °F /  14.6 °C 55.6 °F /  13.1 °C 30.05in /  1017.5hPa Calm     88% 0.00in /  0mm 0 W/m2
22:24 58.4 °F /  14.7 °C 55.7 °F /  13.2 °C 30.05in /  1017.5hPa Calm     88% 0.00in /  0mm 0 W/m2
22:29 58.5 °F /  14.7 °C 55.8 °F /  13.2 °C 30.05in /  1017.5hPa Calm     88% 0.00in /  0mm 0 W/m2
22:34 58.5 °F /  14.7 °C 55.8 °F /  13.2 °C 30.05in /  1017.5hPa Calm     88% 0.00in /  0mm 0 W/m2
22:39 58.5 °F /  14.7 °C 55.9 °F /  13.3 °C 30.05in /  1017.5hPa Calm     88.4% 0.00in /  0mm 0 W/m2
22:44 58.5 °F /  14.7 °C 56 °F /  13.3 °C 30.05in /  1017.5hPa Calm     88.8% 0.00in /  0mm 0 W/m2
22:49 58.5 °F /  14.7 °C 56 °F /  13.3 °C 30.06in /  1017.8hPa Calm     88.8% 0.00in /  0mm 0 W/m2
22:54 58.5 °F /  14.7 °C 56.1 °F /  13.4 °C 30.05in /  1017.5hPa Calm     89% 0.00in /  0mm 0 W/m2
22:59 58.4 °F /  14.7 °C 56 °F /  13.3 °C 30.05in /  1017.5hPa Calm     89% 0.00in /  0mm 0 W/m2
23:04 58.3 °F /  14.6 °C 55.9 °F /  13.3 °C 30.05in /  1017.5hPa Calm     89% 0.00in /  0mm 0 W/m2
23:09 58.3 °F /  14.6 °C 55.9 °F /  13.3 °C 30.05in /  1017.5hPa Calm     89% 0.00in /  0mm 0 W/m2
23:14 57.9 °F /  14.4 °C 55.6 °F /  13.1 °C 30.05in /  1017.5hPa Calm     89% 0.00in /  0mm 0 W/m2
23:19 57.8 °F /  14.3 °C 55.5 °F /  13.1 °C 30.05in /  1017.5hPa Calm     89% 0.00in /  0mm 0 W/m2
23:24 57.7 °F /  14.3 °C 55.4 °F /  13 °C 30.05in /  1017.5hPa Calm     89% 0.00in /  0mm 0 W/m2
23:29 57.7 °F /  14.3 °C 55.4 °F /  13 °C 30.05in /  1017.5hPa Calm     89% 0.00in /  0mm 0 W/m2
23:33 57.7 °F /  14.3 °C 55.5 °F /  13.1 °C 30.05in /  1017.5hPa Calm     89.5% 0.00in /  0mm 0 W/m2
23:39 57.6 °F /  14.2 °C 55.6 °F /  13.1 °C 30.05in /  1017.5hPa Calm     90% 0.00in /  0mm 0 W/m2
23:44 57.6 °F /  14.2 °C 55.6 °F /  13.1 °C 30.05in /  1017.5hPa Calm     90% 0.00in /  0mm 0 W/m2
23:49 57.6 °F /  14.2 °C 55.6 °F /  13.1 °C 30.05in /  1017.5hPa Calm     90% 0.00in /  0mm 0 W/m2
23:54 57.6 °F /  14.2 °C 55.6 °F /  13.1 °C 30.05in /  1017.5hPa Calm     90% 0.00in /  0mm 0 W/m2
23:59 57.6 °F /  14.2 °C 55.6 °F /  13.1 °C 30.05in /  1017.5hPa Calm     90% 0.00in /  0mm 0 W/m2
Bath Spa Weather
Compliments of Weather Underground - 2 mb